Accueil
METAR-TAF:

METAR-TAF

Aéroports :

Aéroport de Sumburgh

Sumburgh, Shetland, Écosse

latitude: 59-53N, longitude: 001-18W, altitude: 5 m

Observation

Le bulletin a été fait il y a 19 minutes, à 03:50 UTC
Vent 6 kt de sud/sud-est
Température 5°C
Humidité 70%
Pression 1023 hPa
Visibilité 10 km ou plus

METAR: EGPB 110350Z AUTO 15006KT 9999 FEW027/// 05/00 Q1023

Heure: 04:09 (04:09 UTC)

Prévision

Le bulletin a été fait il y a 2 heures et 14 minutes, à 01:55 UTC
Prévision valable du 11 à 03 UTC au 11 à 12 UTC
Vent 5 kt de sud-est
Visibilité 10 km ou plus
Quelques nuages à une hauteur de 2500 ft
Evoluant progressivement
du 11 à 03 UTC au 11 à 06 UTC
Vent 15 kt de sud/sud-est

TAF: EGPB 110155Z 1103/1112 13005KT 9999 FEW025 BECMG 1103/1106 15015KT

Observations et prévisions météorologiques de plus de 4000 aéroports (messages METAR et TAF).

Les stations disponibles sont représentées par des disques jaunes et rouges sur la carte.

Passer la souris dessus pour voir le nom de la station.

Cliquer dessus pour voir les observations et prévisions météorologiques.

Pour changer de carte: cliquez sur les boutons verts avec une croix noire pour zoomer, sur le bouton vert avec un tiret pour effectuer un zoom arrière, ou sur les flèches vertes pour les cartes adjacentes.


METAR-TAF: